createdAt,value
2019-03-25T00:02:34.653Z,78.96
2019-03-25T00:05:10.046Z,78.89
2019-03-25T00:07:45.338Z,78.88
2019-03-25T00:10:20.034Z,78.77
2019-03-25T00:12:55.012Z,79.02
2019-03-25T00:15:29.767Z,79.26
2019-03-25T00:18:04.264Z,79.61
2019-03-25T00:20:39.431Z,79.97
2019-03-25T00:23:13.895Z,80.12
2019-03-25T00:25:48.691Z,80.39
2019-03-25T00:28:23.804Z,80.64
2019-03-25T00:30:59.827Z,81.14
2019-03-25T00:33:35.783Z,81.43
2019-03-25T00:36:10.801Z,81.72
2019-03-25T00:38:45.655Z,81.97
2019-03-25T00:41:20.990Z,82.27
2019-03-25T00:43:56.031Z,82.51
2019-03-25T00:46:30.626Z,82.80
2019-03-25T00:49:06.683Z,83.03
2019-03-25T00:51:41.386Z,82.91
2019-03-25T00:54:19.901Z,82.86
2019-03-25T00:56:58.368Z,82.78
2019-03-25T00:59:34.087Z,82.53
2019-03-25T01:02:09.105Z,82.20
2019-03-25T01:04:44.215Z,81.63
2019-03-25T01:07:19.532Z,81.37
2019-03-25T01:09:54.466Z,81.21
2019-03-25T01:12:29.475Z,81.06
2019-03-25T01:15:07.811Z,81.05
2019-03-25T01:17:42.591Z,81.05
2019-03-25T01:20:17.866Z,81.06
2019-03-25T01:22:52.934Z,81.09
2019-03-25T01:25:28.594Z,81.15
2019-03-25T01:28:03.360Z,81.26
2019-03-25T01:30:38.570Z,81.40
2019-03-25T01:33:14.056Z,81.53
2019-03-25T01:35:48.835Z,81.54
2019-03-25T01:38:23.735Z,81.64
2019-03-25T01:40:59.003Z,81.74
2019-03-25T01:43:34.133Z,81.88
2019-03-25T01:46:08.866Z,81.79
2019-03-25T01:48:43.990Z,81.45
2019-03-25T01:51:19.237Z,81.20
2019-03-25T01:53:53.926Z,80.92
2019-03-25T01:56:29.924Z,80.68
2019-03-25T01:59:04.679Z,80.46
2019-03-25T02:01:39.670Z,80.39
2019-03-25T02:04:15.042Z,80.08
2019-03-25T02:06:49.691Z,80.03
2019-03-25T02:09:24.848Z,79.86
2019-03-25T02:12:00.395Z,79.90
2019-03-25T02:14:35.503Z,79.99
2019-03-25T02:17:10.504Z,79.96
2019-03-25T02:19:45.916Z,79.50
2019-03-25T02:22:21.119Z,79.23
2019-03-25T02:24:56.651Z,78.94
2019-03-25T02:27:32.170Z,78.57
2019-03-25T02:30:09.313Z,78.49
2019-03-25T02:32:45.331Z,78.10
2019-03-25T02:35:20.512Z,77.74
2019-03-25T02:37:55.909Z,77.40
2019-03-25T02:40:30.466Z,77.25
2019-03-25T02:43:05.128Z,76.99
2019-03-25T02:45:40.654Z,76.69
2019-03-25T02:48:16.223Z,76.45
2019-03-25T02:50:54.018Z,76.26
2019-03-25T02:53:28.955Z,76.29
2019-03-25T02:56:03.596Z,76.28
2019-03-25T02:58:39.863Z,76.22
2019-03-25T03:01:15.255Z,76.19
2019-03-25T03:03:50.136Z,76.23
2019-03-25T03:06:26.792Z,76.09
2019-03-25T03:09:01.627Z,76.01
2019-03-25T03:11:36.223Z,76.12
2019-03-25T03:14:15.146Z,76.24
2019-03-25T03:16:50.338Z,76.20
2019-03-25T03:19:24.884Z,76.25
2019-03-25T03:22:00.100Z,76.39
2019-03-25T03:24:34.959Z,76.60
2019-03-25T03:27:09.968Z,76.59
2019-03-25T03:29:45.381Z,76.61
2019-03-25T03:32:20.763Z,76.67
2019-03-25T03:34:55.465Z,76.73
2019-03-25T03:37:31.772Z,76.81
2019-03-25T03:40:06.592Z,76.85
2019-03-25T03:42:41.910Z,76.92
2019-03-25T03:45:18.846Z,76.98
2019-03-25T03:47:53.426Z,76.97
2019-03-25T03:50:29.272Z,77.10
2019-03-25T03:53:04.284Z,77.22
2019-03-25T03:55:42.103Z,77.30
2019-03-25T03:58:16.972Z,77.46
2019-03-25T04:00:52.104Z,77.57
2019-03-25T04:03:28.111Z,77.84
2019-03-25T04:06:02.717Z,77.81
2019-03-25T04:08:37.700Z,77.45
2019-03-25T04:11:13.805Z,77.44
2019-03-25T04:13:48.298Z,77.40
2019-03-25T04:16:22.854Z,77.34
2019-03-25T04:18:59.030Z,77.36
2019-03-25T04:21:34.018Z,77.50
2019-03-25T04:24:08.488Z,77.68
2019-03-25T04:26:45.835Z,77.89
2019-03-25T04:29:20.397Z,78.26
2019-03-25T04:31:55.259Z,79.00
2019-03-25T04:34:32.237Z,79.15
2019-03-25T04:37:07.508Z,79.42
2019-03-25T04:39:42.369Z,80.15
2019-03-25T04:42:17.647Z,80.41
2019-03-25T04:44:52.504Z,80.36
2019-03-25T04:47:26.983Z,80.58
2019-03-25T04:50:02.662Z,80.62
2019-03-25T04:52:37.887Z,80.71
2019-03-25T04:55:12.714Z,80.74
2019-03-25T04:57:47.938Z,80.92
2019-03-25T05:00:37.458Z,81.20
2019-03-25T05:03:12.955Z,81.71
2019-03-25T05:05:48.895Z,81.79
2019-03-25T05:08:25.542Z,82.07
2019-03-25T05:11:03.730Z,82.65
2019-03-25T05:13:38.554Z,83.13
2019-03-25T05:16:13.940Z,83.41
2019-03-25T05:18:48.931Z,84.11
2019-03-25T05:21:24.124Z,84.28
2019-03-25T05:24:01.796Z,84.63
2019-03-25T05:26:37.515Z,85.05
2019-03-25T05:29:13.995Z,85.16
2019-03-25T05:31:50.940Z,85.45
2019-03-25T05:34:25.407Z,85.92
2019-03-25T05:37:02.103Z,85.92
2019-03-25T05:39:37.941Z,86.17
2019-03-25T05:42:13.404Z,86.10
2019-03-25T05:44:48.521Z,85.94
2019-03-25T05:47:23.152Z,85.68
2019-03-25T05:49:58.422Z,85.70
2019-03-25T05:52:33.469Z,86.01
2019-03-25T05:55:08.778Z,85.92
2019-03-25T05:57:44.417Z,85.84
2019-03-25T06:00:22.349Z,85.65
2019-03-25T06:02:57.614Z,85.51
2019-03-25T06:05:34.798Z,85.61
2019-03-25T06:08:11.042Z,85.78
2019-03-25T06:10:46.770Z,85.66
2019-03-25T06:13:21.520Z,85.49
2019-03-25T06:15:58.575Z,85.30
2019-03-25T06:18:34.007Z,85.15
2019-03-25T06:21:08.541Z,85.21
2019-03-25T06:23:45.471Z,85.55
2019-03-25T06:26:20.939Z,86.19
2019-03-25T06:28:56.311Z,86.50
2019-03-25T06:31:32.747Z,87.30
2019-03-25T06:34:07.542Z,87.75
2019-03-25T06:36:42.339Z,87.76
2019-03-25T06:39:17.798Z,87.56
2019-03-25T06:41:56.016Z,87.43
2019-03-25T06:44:32.413Z,87.22
2019-03-25T06:47:07.482Z,86.29
2019-03-25T06:49:45.453Z,85.43
2019-03-25T06:52:21.506Z,85.20
2019-03-25T06:54:57.419Z,85.42
2019-03-25T06:57:32.382Z,85.88
2019-03-25T07:00:09.397Z,86.58
2019-03-25T07:02:46.071Z,86.73
2019-03-25T07:05:20.878Z,85.63
2019-03-25T07:07:55.924Z,84.43
2019-03-25T07:10:37.987Z,83.53
2019-03-25T07:13:12.930Z,83.13
2019-03-25T07:15:48.446Z,82.25
2019-03-25T07:18:24.643Z,82.02
2019-03-25T07:20:59.627Z,81.75
2019-03-25T07:23:34.265Z,81.49
2019-03-25T07:26:09.380Z,81.18
2019-03-25T07:28:44.905Z,81.02
2019-03-25T07:31:19.894Z,80.84
2019-03-25T07:33:55.319Z,80.02
2019-03-25T07:36:30.206Z,80.35
2019-03-25T07:39:05.873Z,80.24
2019-03-25T07:41:41.251Z,80.61
2019-03-25T07:44:15.931Z,80.47
2019-03-25T07:46:51.499Z,80.00
2019-03-25T07:49:29.842Z,79.06
2019-03-25T07:52:07.679Z,78.33
2019-03-25T07:54:43.127Z,78.21
2019-03-25T07:57:17.833Z,78.18
2019-03-25T07:59:53.166Z,77.39
2019-03-25T08:02:27.700Z,76.56
2019-03-25T08:05:03.235Z,75.52
2019-03-25T08:07:38.498Z,75.65
2019-03-25T08:10:20.358Z,75.74
2019-03-25T08:12:56.179Z,74.05
2019-03-25T08:15:33.789Z,73.00
2019-03-25T08:18:15.199Z,73.08
2019-03-25T08:20:49.736Z,71.21
2019-03-25T08:23:25.803Z,71.16
2019-03-25T08:26:00.669Z,70.61
2019-03-25T08:28:36.857Z,70.98
2019-03-25T08:31:11.838Z,69.80
2019-03-25T08:33:46.624Z,69.80
2019-03-25T08:36:21.824Z,70.39
2019-03-25T08:39:02.844Z,70.10
2019-03-25T08:41:38.560Z,70.18
2019-03-25T08:44:14.132Z,70.66
2019-03-25T08:46:49.857Z,70.38
2019-03-25T08:49:24.603Z,70.95
2019-03-25T08:52:00.939Z,72.31
2019-03-25T08:54:38.065Z,73.65
2019-03-25T08:57:18.279Z,73.86
2019-03-25T08:59:53.347Z,73.83
2019-03-25T09:02:27.930Z,72.07
2019-03-25T09:05:05.303Z,72.69
2019-03-25T09:07:41.679Z,74.18
2019-03-25T09:10:18.347Z,74.28
2019-03-25T09:12:53.374Z,72.59
2019-03-25T09:15:41.675Z,72.25
2019-03-25T09:18:18.230Z,70.61
2019-03-25T09:20:52.997Z,68.97
2019-03-25T09:23:30.430Z,69.35
2019-03-25T09:26:05.353Z,70.78
2019-03-25T09:28:40.277Z,71.08
2019-03-25T09:31:18.675Z,70.35
2019-03-25T09:33:56.763Z,72.18
2019-03-25T09:36:32.443Z,73.73
2019-03-25T09:39:08.521Z,73.71
2019-03-25T09:41:43.621Z,74.84
2019-03-25T09:44:19.658Z,76.96
2019-03-25T09:46:56.840Z,77.77
2019-03-25T09:49:31.913Z,78.52
2019-03-25T09:52:08.148Z,79.50
2019-03-25T09:54:43.913Z,80.86
2019-03-25T09:57:20.515Z,80.96
2019-03-25T10:00:00.346Z,81.28
2019-03-25T10:02:43.212Z,82.61
2019-03-25T10:05:23.006Z,84.46
2019-03-25T10:07:59.043Z,86.69
2019-03-25T10:10:36.035Z,87.68
2019-03-25T10:13:22.653Z,88.20
2019-03-25T10:15:58.175Z,88.86
2019-03-25T10:18:43.035Z,86.52
2019-03-25T10:21:18.901Z,84.89
2019-03-25T10:23:55.129Z,82.26
2019-03-25T10:26:42.786Z,81.70
2019-03-25T10:29:17.491Z,80.11
2019-03-25T10:31:52.871Z,78.39
2019-03-25T10:34:32.011Z,78.32
2019-03-25T10:37:07.172Z,81.63
2019-03-25T10:39:42.786Z,85.11
2019-03-25T10:42:18.547Z,88.62
2019-03-25T10:44:54.070Z,88.82
2019-03-25T10:47:29.479Z,86.74
2019-03-25T10:50:05.508Z,85.95
2019-03-25T10:52:41.763Z,84.39
2019-03-25T10:55:16.645Z,81.07
2019-03-25T10:57:56.139Z,80.28
2019-03-25T11:00:32.372Z,79.46
2019-03-25T11:03:10.989Z,77.26
2019-03-25T11:05:49.601Z,72.79
2019-03-25T11:08:30.214Z,73.28
2019-03-25T11:11:07.347Z,70.80
2019-03-25T11:13:42.054Z,71.09
2019-03-25T11:16:24.979Z,72.20
2019-03-25T11:19:01.322Z,76.75
2019-03-25T11:21:37.220Z,82.40
2019-03-25T11:24:12.058Z,85.09
2019-03-25T11:26:47.797Z,85.51
2019-03-25T11:29:23.505Z,85.00
2019-03-25T11:31:59.818Z,80.34
2019-03-25T11:34:36.120Z,79.21
2019-03-25T11:37:11.288Z,78.49
2019-03-25T11:39:49.217Z,78.27
2019-03-25T11:42:24.316Z,72.33
2019-03-25T11:44:59.878Z,72.86
2019-03-25T11:47:34.759Z,75.86
2019-03-25T11:50:10.069Z,77.07
2019-03-25T11:52:44.805Z,79.16
2019-03-25T11:55:19.982Z,77.10
2019-03-25T11:57:56.196Z,76.41
2019-03-25T12:00:33.768Z,75.49
2019-03-25T12:03:12.074Z,74.06
2019-03-25T12:05:50.575Z,74.18
2019-03-25T12:08:29.803Z,71.24
2019-03-25T12:11:05.115Z,71.52
2019-03-25T12:13:40.208Z,70.94
2019-03-25T12:16:17.063Z,70.06
2019-03-25T12:18:54.822Z,68.77
2019-03-25T12:21:32.979Z,62.79
2019-03-25T12:24:11.120Z,65.30
2019-03-25T12:26:47.994Z,63.40
2019-03-25T12:29:29.922Z,59.88
2019-03-25T12:32:06.802Z,62.18
2019-03-25T12:34:42.968Z,66.12
2019-03-25T12:37:21.590Z,71.82
2019-03-25T12:39:57.586Z,76.97
2019-03-25T12:42:49.375Z,79.59
2019-03-25T12:45:24.939Z,81.65
2019-03-25T12:48:01.239Z,82.42
2019-03-25T12:50:37.469Z,82.77
2019-03-25T12:53:13.191Z,82.89
2019-03-25T12:55:48.594Z,81.57
2019-03-25T12:58:26.828Z,81.36
2019-03-25T13:01:03.715Z,80.27
2019-03-25T13:03:40.803Z,79.87
2019-03-25T13:06:17.779Z,79.93
2019-03-25T13:08:52.418Z,79.50
2019-03-25T13:11:29.939Z,80.16
2019-03-25T13:14:04.647Z,79.52
2019-03-25T13:16:39.527Z,80.21
2019-03-25T13:19:14.771Z,80.90
2019-03-25T13:21:50.395Z,78.63
2019-03-25T13:24:29.451Z,77.55
2019-03-25T13:27:13.289Z,75.85
2019-03-25T13:29:52.913Z,75.20
2019-03-25T13:32:32.761Z,72.30
2019-03-25T13:35:09.211Z,70.09
2019-03-25T13:37:45.509Z,70.58
2019-03-25T13:40:21.164Z,72.01
2019-03-25T13:42:57.717Z,71.57
2019-03-25T13:45:34.683Z,70.84
2019-03-25T13:48:10.244Z,72.23
2019-03-25T13:50:45.378Z,73.68
2019-03-25T13:53:21.333Z,75.46
2019-03-25T13:55:58.751Z,78.10
2019-03-25T13:58:42.992Z,81.75
2019-03-25T14:01:19.219Z,83.61
2019-03-25T14:03:57.042Z,83.64
2019-03-25T14:06:32.566Z,84.61
2019-03-25T14:09:10.443Z,85.68
2019-03-25T14:11:46.166Z,85.18
2019-03-25T14:14:24.069Z,85.26
2019-03-25T14:16:59.567Z,85.70
2019-03-25T14:19:34.376Z,86.11
2019-03-25T14:22:11.934Z,85.69
2019-03-25T14:24:47.773Z,84.42
2019-03-25T14:27:25.686Z,84.27
2019-03-25T14:30:14.386Z,83.52
2019-03-25T14:32:55.982Z,83.63
2019-03-25T14:35:32.607Z,84.34
2019-03-25T14:38:07.743Z,84.57
2019-03-25T14:40:44.271Z,86.14
2019-03-25T14:43:19.742Z,86.38
2019-03-25T14:45:56.211Z,85.12
2019-03-25T14:48:31.508Z,82.04
2019-03-25T14:51:08.215Z,79.50
2019-03-25T14:53:45.627Z,77.74
2019-03-25T14:56:21.083Z,78.50
2019-03-25T14:58:56.400Z,77.72
2019-03-25T15:01:31.072Z,76.34
2019-03-25T15:04:06.443Z,77.51
2019-03-25T15:06:53.432Z,76.58
2019-03-25T15:09:28.114Z,76.96
2019-03-25T15:12:04.640Z,76.93
2019-03-25T15:14:42.497Z,78.67
2019-03-25T15:17:19.739Z,79.91
2019-03-25T15:19:55.039Z,78.68
2019-03-25T15:22:30.612Z,77.31
2019-03-25T15:25:07.470Z,76.18
2019-03-25T15:27:50.228Z,74.47
2019-03-25T15:30:36.018Z,75.26
2019-03-25T15:33:13.452Z,75.78
2019-03-25T15:35:49.822Z,76.79
2019-03-25T15:38:25.647Z,77.52
2019-03-25T15:41:01.192Z,79.65
2019-03-25T15:43:38.697Z,81.92
2019-03-25T15:46:16.717Z,82.93
2019-03-25T15:48:55.072Z,84.58
2019-03-25T15:51:36.123Z,85.04
2019-03-25T15:54:13.561Z,83.11
2019-03-25T15:56:53.107Z,83.13
2019-03-25T15:59:30.444Z,82.36
2019-03-25T16:02:13.314Z,82.02
2019-03-25T16:04:50.995Z,81.66
2019-03-25T16:07:27.846Z,81.42
2019-03-25T16:10:05.439Z,81.99
2019-03-25T16:12:40.379Z,82.89
2019-03-25T16:15:38.620Z,83.79
2019-03-25T16:18:38.049Z,81.92
2019-03-25T16:21:14.627Z,81.14
2019-03-25T16:23:54.097Z,79.08
2019-03-25T16:26:30.106Z,79.55
2019-03-25T16:29:04.898Z,78.34
2019-03-25T16:31:40.184Z,79.05
2019-03-25T16:34:15.235Z,78.69
2019-03-25T16:36:50.603Z,78.25
2019-03-25T16:39:29.032Z,78.01
2019-03-25T16:42:06.268Z,75.55
2019-03-25T16:44:43.414Z,75.81
2019-03-25T16:47:23.221Z,76.76
2019-03-25T16:50:02.288Z,76.66
2019-03-25T16:52:39.324Z,76.96
2019-03-25T16:55:14.068Z,77.36
2019-03-25T16:57:49.984Z,76.11
2019-03-25T17:00:27.714Z,76.58
2019-03-25T17:03:06.713Z,77.15
2019-03-25T17:05:43.265Z,76.96
2019-03-25T17:08:20.281Z,76.96
2019-03-25T17:10:56.679Z,76.92
2019-03-25T17:13:33.679Z,72.20
2019-03-25T17:16:09.748Z,70.78
2019-03-25T17:18:50.928Z,70.72
2019-03-25T17:21:27.680Z,69.27
2019-03-25T17:24:05.054Z,67.60
2019-03-25T17:26:43.591Z,65.49
2019-03-25T17:29:18.204Z,65.92
2019-03-25T17:31:54.902Z,66.21
2019-03-25T17:34:29.930Z,66.13
2019-03-25T17:37:06.486Z,66.88
2019-03-25T17:39:48.394Z,67.23
2019-03-25T17:42:26.315Z,67.41
2019-03-25T17:45:05.464Z,66.84
2019-03-25T17:47:41.391Z,67.41
2019-03-25T17:50:18.908Z,67.16
2019-03-25T17:52:55.365Z,67.16
2019-03-25T17:55:35.574Z,67.38
2019-03-25T17:58:10.247Z,67.58
2019-03-25T18:01:08.864Z,67.19
2019-03-25T18:03:44.474Z,67.92
2019-03-25T18:06:21.034Z,68.46
2019-03-25T18:08:58.946Z,68.56
2019-03-25T18:11:35.222Z,68.56
2019-03-25T18:14:12.655Z,67.66
2019-03-25T18:16:50.763Z,67.25
2019-03-25T18:19:34.735Z,67.35
2019-03-25T18:22:12.619Z,68.14
2019-03-25T18:24:51.479Z,69.23
2019-03-25T18:27:30.111Z,70.26
2019-03-25T18:30:14.265Z,70.86
2019-03-25T18:32:55.264Z,71.79
2019-03-25T18:35:31.460Z,72.49
2019-03-25T18:38:07.809Z,72.94
2019-03-25T18:40:45.834Z,73.73
2019-03-25T18:43:25.100Z,73.78
2019-03-25T18:46:02.005Z,73.94
2019-03-25T18:48:40.036Z,74.54
2019-03-25T18:51:15.598Z,74.83
2019-03-25T18:53:50.811Z,74.23
2019-03-25T18:56:34.476Z,74.55
2019-03-25T18:59:11.807Z,74.38
2019-03-25T19:01:54.529Z,74.17
2019-03-25T19:04:29.831Z,73.88
2019-03-25T19:07:06.970Z,73.55
2019-03-25T19:09:41.845Z,73.00
2019-03-25T19:12:18.247Z,72.49
2019-03-25T19:14:55.315Z,71.87
2019-03-25T19:17:34.589Z,71.40
2019-03-25T19:20:11.572Z,71.24
2019-03-25T19:22:47.549Z,71.63
2019-03-25T19:25:23.028Z,71.61
2019-03-25T19:28:02.107Z,71.16
2019-03-25T19:30:38.582Z,71.21
2019-03-25T19:33:13.245Z,71.60
2019-03-25T19:35:48.842Z,71.98
2019-03-25T19:38:26.885Z,71.77
2019-03-25T19:41:02.217Z,71.60
2019-03-25T19:43:41.925Z,71.51
2019-03-25T19:46:17.076Z,71.31
2019-03-25T19:48:54.520Z,71.35
2019-03-25T19:51:30.147Z,71.12
2019-03-25T19:54:05.352Z,70.60
2019-03-25T19:56:42.472Z,70.76
2019-03-25T19:59:17.314Z,71.04
2019-03-25T20:01:52.133Z,71.27
2019-03-25T20:04:28.651Z,71.34
2019-03-25T20:07:04.675Z,71.18
2019-03-25T20:09:42.611Z,71.83
2019-03-25T20:12:17.667Z,71.98
2019-03-25T20:14:52.880Z,71.45
2019-03-25T20:17:28.047Z,71.43
2019-03-25T20:20:04.222Z,71.41
2019-03-25T20:22:40.543Z,71.73
2019-03-25T20:25:16.050Z,71.88
2019-03-25T20:27:51.009Z,72.02
2019-03-25T20:30:27.527Z,72.37
2019-03-25T20:33:10.574Z,72.67
2019-03-25T20:35:45.639Z,73.04
2019-03-25T20:38:22.738Z,73.37
2019-03-25T20:40:57.782Z,72.95
2019-03-25T20:43:34.963Z,72.93
2019-03-25T20:46:10.856Z,72.77
2019-03-25T20:48:46.566Z,72.88
2019-03-25T20:51:22.073Z,72.93
2019-03-25T20:53:57.609Z,72.98
2019-03-25T20:56:32.749Z,73.44
2019-03-25T20:59:09.160Z,73.62
2019-03-25T21:01:45.235Z,73.93
2019-03-25T21:04:20.817Z,73.91
2019-03-25T21:06:55.963Z,74.14
2019-03-25T21:09:31.853Z,74.64
2019-03-25T21:12:07.284Z,74.74
2019-03-25T21:14:44.704Z,74.84
2019-03-25T21:17:20.970Z,74.86
2019-03-25T21:19:57.156Z,75.29
2019-03-25T21:22:34.310Z,75.24
2019-03-25T21:25:14.937Z,75.20
2019-03-25T21:27:49.676Z,75.10
2019-03-25T21:30:28.195Z,75.41
2019-03-25T21:33:05.556Z,75.32
2019-03-25T21:35:40.220Z,75.56
2019-03-25T21:38:16.688Z,75.93
2019-03-25T21:40:52.270Z,76.16
2019-03-25T21:43:27.443Z,76.32
2019-03-25T21:46:05.197Z,76.65
2019-03-25T21:48:42.438Z,76.78
2019-03-25T21:51:20.824Z,77.08
2019-03-25T21:53:57.431Z,77.07
2019-03-25T21:56:32.207Z,77.36
2019-03-25T21:59:08.851Z,77.49
2019-03-25T22:01:47.430Z,77.42
2019-03-25T22:04:23.843Z,77.54
2019-03-25T22:06:59.438Z,77.54
2019-03-25T22:09:45.507Z,77.68
2019-03-25T22:12:20.131Z,77.71
2019-03-25T22:14:55.226Z,77.80
2019-03-25T22:17:30.846Z,77.72
2019-03-25T22:20:07.143Z,77.84
2019-03-25T22:22:42.164Z,77.93
2019-03-25T22:25:18.105Z,78.16
2019-03-25T22:27:53.715Z,78.11
2019-03-25T22:30:30.757Z,78.36
2019-03-25T22:33:08.160Z,78.49
2019-03-25T22:35:45.279Z,78.74
2019-03-25T22:38:20.499Z,78.65
2019-03-25T22:40:55.399Z,78.84
2019-03-25T22:43:30.717Z,78.79
2019-03-25T22:46:06.282Z,78.94
2019-03-25T22:48:41.450Z,78.99
2019-03-25T22:51:20.847Z,79.26
2019-03-25T22:54:00.050Z,79.19
2019-03-25T22:56:37.568Z,79.47
2019-03-25T22:59:14.514Z,79.44
2019-03-25T23:01:58.499Z,79.60
2019-03-25T23:04:34.848Z,79.88
2019-03-25T23:07:35.210Z,79.86
2019-03-25T23:10:11.097Z,80.06
2019-03-25T23:12:45.905Z,80.04
2019-03-25T23:15:21.058Z,80.26
2019-03-25T23:17:56.201Z,80.53
2019-03-25T23:20:32.154Z,80.58
2019-03-25T23:23:08.638Z,80.85
2019-03-25T23:25:43.874Z,81.12
2019-03-25T23:28:19.197Z,81.37
2019-03-25T23:30:54.356Z,80.79
2019-03-25T23:33:30.326Z,80.77
2019-03-25T23:36:05.700Z,81.15
2019-03-25T23:38:41.730Z,81.39
2019-03-25T23:41:18.523Z,81.64
2019-03-25T23:43:54.687Z,81.91
2019-03-25T23:46:29.852Z,82.01
2019-03-25T23:49:04.519Z,82.08
2019-03-25T23:51:39.018Z,82.10
2019-03-25T23:54:15.511Z,82.22
2019-03-25T23:56:50.324Z,82.23
2019-03-25T23:59:25.450Z,82.12
